createdAt,value
2022-07-28T00:01:23.387Z,13.73
2022-07-28T00:03:49.794Z,13.67
2022-07-28T00:06:16.513Z,13.62
2022-07-28T00:08:42.950Z,13.72
2022-07-28T00:11:09.467Z,13.70
2022-07-28T00:13:36.013Z,13.77
2022-07-28T00:16:02.544Z,13.56
2022-07-28T00:18:29.053Z,13.56
2022-07-28T00:20:55.488Z,13.59
2022-07-28T00:23:21.909Z,13.48
2022-07-28T00:25:48.389Z,13.68
2022-07-28T00:28:14.818Z,13.51
2022-07-28T00:30:42.916Z,13.43
2022-07-28T00:33:09.433Z,13.31
2022-07-28T00:35:35.863Z,13.46
2022-07-28T00:38:02.320Z,13.47
2022-07-28T00:40:47.652Z,13.21
2022-07-28T00:43:14.739Z,12.93
2022-07-28T00:45:41.369Z,13.00
2022-07-28T00:48:07.829Z,13.02
2022-07-28T00:50:34.254Z,13.10
2022-07-28T00:53:01.122Z,13.16
2022-07-28T00:55:27.587Z,13.00
2022-07-28T00:57:54.138Z,13.03
2022-07-28T01:00:20.753Z,12.87
2022-07-28T01:02:47.318Z,12.85
2022-07-28T01:05:14.955Z,12.90
2022-07-28T01:07:56.405Z,12.80
2022-07-28T01:10:56.029Z,12.76
2022-07-28T01:13:39.761Z,13.07
2022-07-28T01:16:07.649Z,12.80
2022-07-28T01:18:38.913Z,12.78
2022-07-28T01:21:14.112Z,12.71
2022-07-28T01:24:04.769Z,12.67
2022-07-28T01:26:34.874Z,12.82
2022-07-28T01:29:26.970Z,12.94
2022-07-28T01:32:01.064Z,12.76
2022-07-28T01:34:39.360Z,12.79
2022-07-28T01:37:11.757Z,12.63
2022-07-28T01:39:41.155Z,12.53
2022-07-28T01:42:09.523Z,12.63
2022-07-28T01:44:39.085Z,12.79
2022-07-28T01:47:07.560Z,12.82
2022-07-28T01:49:35.655Z,12.65
2022-07-28T01:52:03.555Z,12.75
2022-07-28T01:54:31.074Z,12.86
2022-07-28T01:56:59.269Z,12.81
2022-07-28T01:59:26.419Z,12.59
2022-07-28T02:01:53.481Z,12.46
2022-07-28T02:04:21.515Z,12.53
2022-07-28T02:06:48.652Z,12.58
2022-07-28T02:09:15.987Z,12.67
2022-07-28T02:11:44.362Z,12.72
2022-07-28T02:14:14.068Z,12.50
2022-07-28T02:16:54.822Z,12.44
2022-07-28T02:19:21.472Z,12.33
2022-07-28T02:21:49.426Z,12.36
2022-07-28T02:24:19.533Z,12.32
2022-07-28T02:27:06.522Z,12.10
2022-07-28T02:29:50.631Z,12.04
2022-07-28T02:32:27.989Z,11.89
2022-07-28T02:35:05.714Z,11.97
2022-07-28T02:37:39.227Z,12.02
2022-07-28T02:40:09.925Z,12.05
2022-07-28T02:42:36.759Z,12.25
2022-07-28T02:45:05.272Z,12.17
2022-07-28T02:47:37.686Z,11.81
2022-07-28T02:50:04.840Z,11.87
2022-07-28T02:52:32.950Z,11.64
2022-07-28T02:55:00.758Z,11.62
2022-07-28T02:57:27.635Z,11.75
2022-07-28T02:59:54.592Z,11.82
2022-07-28T03:02:21.642Z,11.73
2022-07-28T03:05:02.075Z,11.62
2022-07-28T03:07:30.186Z,11.73
2022-07-28T03:09:57.192Z,11.90
2022-07-28T03:12:23.701Z,11.96
2022-07-28T03:14:50.174Z,11.97
2022-07-28T03:17:16.862Z,11.78
2022-07-28T03:19:43.514Z,11.69
2022-07-28T03:22:11.645Z,11.62
2022-07-28T03:24:40.414Z,11.32
2022-07-28T03:27:28.296Z,11.23
2022-07-28T03:30:04.524Z,11.13
2022-07-28T03:32:33.273Z,11.08
2022-07-28T03:35:00.580Z,11.06
2022-07-28T03:37:38.318Z,11.09
2022-07-28T03:40:05.378Z,11.21
2022-07-28T03:42:33.240Z,11.05
2022-07-28T03:45:00.423Z,10.96
2022-07-28T03:47:26.896Z,10.95
2022-07-28T03:49:53.325Z,11.00
2022-07-28T03:52:19.789Z,10.99
2022-07-28T03:54:46.200Z,11.03
2022-07-28T03:57:13.716Z,11.23
2022-07-28T03:59:40.292Z,11.29
2022-07-28T04:02:06.868Z,11.00
2022-07-28T04:04:33.382Z,11.11
2022-07-28T04:06:59.824Z,11.25
2022-07-28T04:09:26.239Z,10.95
2022-07-28T04:11:52.798Z,10.90
2022-07-28T04:14:19.637Z,10.89
2022-07-28T04:16:46.351Z,10.99
2022-07-28T04:19:12.840Z,10.84
2022-07-28T04:21:39.309Z,10.99
2022-07-28T04:24:06.918Z,11.09
2022-07-28T04:26:33.616Z,11.12
2022-07-28T04:29:00.049Z,11.18
2022-07-28T04:31:29.969Z,11.27
2022-07-28T04:33:56.459Z,11.39
2022-07-28T04:36:22.867Z,11.15
2022-07-28T04:38:49.257Z,11.15
2022-07-28T04:41:15.676Z,11.16
2022-07-28T04:43:42.562Z,11.45
2022-07-28T04:46:13.212Z,11.53
2022-07-28T04:48:41.412Z,11.66
2022-07-28T04:51:07.903Z,11.81
2022-07-28T04:53:34.357Z,12.04
2022-07-28T04:56:00.810Z,11.89
2022-07-28T04:58:30.967Z,12.04
2022-07-28T05:00:57.607Z,12.28
2022-07-28T05:03:24.163Z,12.38
2022-07-28T05:05:54.433Z,12.38
2022-07-28T05:08:22.075Z,12.49
2022-07-28T05:10:52.282Z,12.58
2022-07-28T05:13:18.696Z,12.65
2022-07-28T05:15:45.089Z,12.58
2022-07-28T05:18:11.528Z,12.62
2022-07-28T05:20:37.921Z,12.75
2022-07-28T05:23:04.490Z,12.92
2022-07-28T05:25:30.943Z,12.86
2022-07-28T05:27:57.493Z,12.79
2022-07-28T05:30:23.977Z,12.91
2022-07-28T05:32:51.018Z,12.92
2022-07-28T05:35:17.491Z,12.97
2022-07-28T05:37:44.032Z,12.99
2022-07-28T05:40:13.717Z,13.02
2022-07-28T05:42:41.905Z,13.00
2022-07-28T05:45:16.453Z,12.99
2022-07-28T05:47:47.556Z,13.03
2022-07-28T05:50:15.994Z,13.20
2022-07-28T05:52:42.451Z,13.32
2022-07-28T05:55:10.001Z,13.31
2022-07-28T05:57:37.241Z,13.48
2022-07-28T06:00:06.955Z,13.54
2022-07-28T06:02:33.606Z,13.65
2022-07-28T06:05:00.104Z,13.66
2022-07-28T06:07:43.767Z,13.81
2022-07-28T06:10:11.625Z,13.95
2022-07-28T06:12:45.934Z,13.90
2022-07-28T06:15:18.065Z,14.05
2022-07-28T06:17:44.517Z,14.15
2022-07-28T06:20:11.878Z,14.17
2022-07-28T06:22:46.292Z,14.38
2022-07-28T06:25:15.161Z,14.31
2022-07-28T06:27:41.829Z,14.37
2022-07-28T06:30:09.040Z,14.40
2022-07-28T06:32:35.592Z,14.46
2022-07-28T06:35:02.016Z,14.55
2022-07-28T06:37:28.404Z,14.56
2022-07-28T06:39:54.810Z,14.64
2022-07-28T06:42:21.224Z,14.73
2022-07-28T06:44:58.250Z,14.90
2022-07-28T06:47:25.584Z,14.95
2022-07-28T06:49:52.011Z,15.17
2022-07-28T06:52:20.656Z,15.19
2022-07-28T06:54:48.821Z,15.13
2022-07-28T06:57:15.483Z,15.05
2022-07-28T06:59:43.433Z,15.10
2022-07-28T07:02:09.861Z,15.18
2022-07-28T07:04:36.786Z,15.45
2022-07-28T07:07:03.780Z,15.67
2022-07-28T07:09:41.312Z,15.74
2022-07-28T07:12:07.763Z,16.01
2022-07-28T07:14:34.233Z,16.15
2022-07-28T07:17:00.637Z,16.11
2022-07-28T07:19:27.087Z,16.07
2022-07-28T07:21:53.569Z,16.00
2022-07-28T07:24:19.993Z,15.87
2022-07-28T07:26:48.848Z,15.94
2022-07-28T07:29:15.281Z,16.12
2022-07-28T07:31:41.855Z,16.21
2022-07-28T07:34:08.409Z,16.26
2022-07-28T07:36:34.820Z,16.37
2022-07-28T07:39:01.254Z,16.50
2022-07-28T07:41:27.654Z,16.70
2022-07-28T07:43:54.063Z,16.76
2022-07-28T07:46:20.523Z,16.81
2022-07-28T07:48:47.020Z,16.84
2022-07-28T07:51:15.736Z,17.16
2022-07-28T07:53:42.303Z,17.29
2022-07-28T07:56:08.729Z,17.38
2022-07-28T07:58:35.138Z,17.29
2022-07-28T08:01:01.576Z,17.33
2022-07-28T08:03:27.969Z,17.21
2022-07-28T08:05:56.592Z,17.01
2022-07-28T08:08:24.099Z,17.20
2022-07-28T08:10:51.022Z,17.51
2022-07-28T08:13:20.329Z,17.55
2022-07-28T08:15:47.164Z,17.81
2022-07-28T08:18:13.699Z,18.03
2022-07-28T08:20:40.113Z,17.95
2022-07-28T08:23:08.344Z,17.90
2022-07-28T08:25:36.650Z,17.95
2022-07-28T08:28:03.416Z,17.93
2022-07-28T08:30:32.762Z,17.92
2022-07-28T08:33:00.036Z,17.97
2022-07-28T08:35:35.332Z,18.24
2022-07-28T08:38:03.950Z,18.63
2022-07-28T08:40:32.278Z,18.75
2022-07-28T08:43:25.208Z,18.78
2022-07-28T08:45:58.075Z,19.09
2022-07-28T08:48:24.953Z,19.17
2022-07-28T08:50:52.370Z,19.04
2022-07-28T08:53:20.546Z,19.33
2022-07-28T08:55:49.041Z,19.42
2022-07-28T08:58:16.664Z,19.47
2022-07-28T09:00:43.122Z,19.67
2022-07-28T09:03:11.465Z,19.99
2022-07-28T09:05:41.093Z,20.15
2022-07-28T09:08:07.582Z,20.19
2022-07-28T09:10:34.024Z,20.21
2022-07-28T09:13:00.419Z,20.27
2022-07-28T09:15:27.050Z,20.52
2022-07-28T09:17:53.521Z,20.67
2022-07-28T09:20:20.163Z,20.55
2022-07-28T09:23:02.770Z,20.98
2022-07-28T09:25:30.275Z,20.64
2022-07-28T09:28:05.497Z,21.02
2022-07-28T09:30:33.964Z,21.27
2022-07-28T09:33:42.372Z,21.23
2022-07-28T09:36:04.042Z,21.42
2022-07-28T09:38:40.041Z,21.45
2022-07-28T09:41:07.361Z,21.30
2022-07-28T09:43:44.485Z,21.33
2022-07-28T09:46:22.110Z,21.74
2022-07-28T09:48:48.847Z,21.50
2022-07-28T09:51:36.613Z,21.89
2022-07-28T09:54:14.321Z,21.90
2022-07-28T09:56:46.023Z,21.99
2022-07-28T09:59:14.883Z,22.43
2022-07-28T10:01:59.732Z,22.52
2022-07-28T10:04:41.851Z,22.11
2022-07-28T10:07:10.385Z,22.36
2022-07-28T10:09:40.653Z,22.70
2022-07-28T10:12:20.322Z,23.11
2022-07-28T10:14:48.108Z,22.93
2022-07-28T10:17:26.891Z,23.11
2022-07-28T10:19:55.013Z,23.47
2022-07-28T10:22:23.469Z,23.19
2022-07-28T10:24:52.738Z,23.03
2022-07-28T10:27:24.821Z,23.22
2022-07-28T10:29:56.877Z,23.46
2022-07-28T10:32:23.225Z,23.53
2022-07-28T10:34:56.203Z,23.86
2022-07-28T10:37:27.738Z,23.95
2022-07-28T10:40:09.977Z,23.48
2022-07-28T10:42:37.166Z,23.69
2022-07-28T10:45:04.688Z,23.75
2022-07-28T10:47:35.865Z,23.96
2022-07-28T10:50:03.432Z,23.55
2022-07-28T10:52:46.636Z,23.65
2022-07-28T10:55:31.646Z,23.60
2022-07-28T10:58:24.770Z,23.97
2022-07-28T11:00:56.781Z,24.54
2022-07-28T11:03:43.081Z,24.25
2022-07-28T11:06:36.632Z,24.31
2022-07-28T11:09:15.340Z,24.27
2022-07-28T11:11:53.193Z,24.18
2022-07-28T11:14:22.749Z,24.75
2022-07-28T11:17:11.463Z,25.06
2022-07-28T11:19:46.736Z,24.94
2022-07-28T11:22:28.299Z,24.56
2022-07-28T11:24:57.986Z,24.71
2022-07-28T11:27:40.087Z,24.82
2022-07-28T11:30:06.925Z,24.12
2022-07-28T11:33:03.345Z,24.82
2022-07-28T11:35:31.353Z,24.87
2022-07-28T11:38:00.687Z,24.52
2022-07-28T11:40:30.834Z,24.83
2022-07-28T11:43:36.630Z,24.98
2022-07-28T11:46:04.868Z,25.62
2022-07-28T11:48:38.340Z,25.95
2022-07-28T11:51:04.809Z,25.76
2022-07-28T11:53:53.254Z,25.80
2022-07-28T11:56:23.984Z,26.18
2022-07-28T11:59:05.085Z,26.64
2022-07-28T12:01:33.135Z,27.14
2022-07-28T12:04:17.401Z,27.46
2022-07-28T12:06:44.434Z,26.84
2022-07-28T12:09:23.309Z,26.66
2022-07-28T12:11:54.106Z,26.86
2022-07-28T12:14:22.497Z,26.90
2022-07-28T12:16:52.566Z,27.96
2022-07-28T12:19:20.711Z,27.31
2022-07-28T12:21:56.573Z,26.92
2022-07-28T12:24:31.388Z,27.11
2022-07-28T12:27:00.232Z,27.57
2022-07-28T12:29:36.066Z,27.93
2022-07-28T12:32:09.600Z,28.15
2022-07-28T12:34:37.901Z,26.92
2022-07-28T12:37:06.036Z,26.58
2022-07-28T12:39:34.344Z,26.77
2022-07-28T12:42:11.585Z,27.41
2022-07-28T12:44:43.503Z,28.03
2022-07-28T12:47:12.040Z,28.06
2022-07-28T12:49:40.841Z,28.72
2022-07-28T12:52:22.066Z,28.44
2022-07-28T12:54:55.834Z,28.29
2022-07-28T12:57:50.617Z,29.15
2022-07-28T13:00:29.359Z,29.79
2022-07-28T13:02:57.816Z,29.57
2022-07-28T13:05:58.046Z,29.29
2022-07-28T13:08:27.433Z,28.52
2022-07-28T13:10:57.481Z,28.26
2022-07-28T13:13:25.508Z,28.00
2022-07-28T13:16:15.504Z,26.76
2022-07-28T13:18:43.141Z,26.90
2022-07-28T13:21:10.854Z,27.80
2022-07-28T13:23:37.666Z,28.23
2022-07-28T13:26:05.634Z,28.76
2022-07-28T13:28:32.217Z,28.79
2022-07-28T13:30:58.664Z,29.39
2022-07-28T13:33:26.755Z,29.53
2022-07-28T13:35:54.729Z,28.61
2022-07-28T13:38:21.222Z,27.72
2022-07-28T13:40:47.694Z,27.16
2022-07-28T13:43:14.154Z,27.83
2022-07-28T13:45:40.681Z,28.06
2022-07-28T13:48:08.341Z,28.86
2022-07-28T13:50:34.845Z,29.55
2022-07-28T13:53:01.491Z,29.10
2022-07-28T13:55:28.146Z,27.82
2022-07-28T13:57:54.950Z,28.16
2022-07-28T14:00:23.196Z,28.00
2022-07-28T14:02:50.816Z,28.50
2022-07-28T14:05:17.410Z,27.61
2022-07-28T14:07:48.134Z,27.57
2022-07-28T14:10:15.545Z,27.93
2022-07-28T14:12:41.994Z,27.65
2022-07-28T14:15:11.591Z,27.72
2022-07-28T14:17:43.697Z,27.63
2022-07-28T14:20:12.839Z,26.90
2022-07-28T14:22:39.240Z,26.91
2022-07-28T14:25:06.073Z,27.44
2022-07-28T14:27:32.622Z,27.93
2022-07-28T14:29:59.065Z,27.86
2022-07-28T14:32:30.169Z,27.21
2022-07-28T14:34:56.574Z,25.57
2022-07-28T14:37:23.149Z,25.71
2022-07-28T14:39:49.548Z,26.22
2022-07-28T14:42:16.079Z,26.46
2022-07-28T14:44:42.489Z,26.59
2022-07-28T14:47:09.038Z,26.45
2022-07-28T14:49:35.743Z,26.27
2022-07-28T14:52:02.773Z,26.48
2022-07-28T14:54:29.532Z,26.81
2022-07-28T14:56:56.271Z,26.48
2022-07-28T14:59:22.776Z,26.27
2022-07-28T15:01:49.963Z,25.74
2022-07-28T15:04:17.920Z,25.16
2022-07-28T15:06:44.936Z,25.17
2022-07-28T15:09:11.463Z,25.16
2022-07-28T15:11:39.594Z,25.30
2022-07-28T15:14:06.011Z,25.17
2022-07-28T15:16:33.003Z,24.71
2022-07-28T15:18:59.444Z,25.14
2022-07-28T15:21:25.854Z,25.41
2022-07-28T15:23:52.310Z,25.50
2022-07-28T15:26:18.746Z,25.48
2022-07-28T15:28:48.252Z,25.62
2022-07-28T15:31:15.490Z,25.73
2022-07-28T15:33:48.188Z,25.98
2022-07-28T15:36:20.423Z,26.04
2022-07-28T15:38:48.970Z,25.94
2022-07-28T15:41:18.268Z,25.50
2022-07-28T15:43:44.948Z,25.62
2022-07-28T15:46:12.934Z,25.56
2022-07-28T15:48:41.311Z,25.57
2022-07-28T15:51:08.436Z,25.63
2022-07-28T15:53:35.762Z,25.96
2022-07-28T15:56:04.009Z,26.02
2022-07-28T15:58:30.466Z,26.08
2022-07-28T16:00:56.881Z,25.79
2022-07-28T16:03:27.996Z,25.40
2022-07-28T16:05:54.492Z,25.31
2022-07-28T16:08:22.512Z,25.43
2022-07-28T16:10:49.908Z,25.36
2022-07-28T16:13:22.708Z,25.36
2022-07-28T16:16:02.837Z,24.95
2022-07-28T16:18:29.253Z,24.71
2022-07-28T16:20:55.691Z,24.81
2022-07-28T16:23:22.167Z,24.97
2022-07-28T16:25:48.572Z,24.87
2022-07-28T16:28:14.962Z,24.69
2022-07-28T16:30:41.441Z,24.93
2022-07-28T16:33:08.177Z,24.66
2022-07-28T16:35:34.604Z,24.59
2022-07-28T16:38:05.056Z,24.69
2022-07-28T16:40:32.454Z,24.59
2022-07-28T16:43:04.227Z,24.74
2022-07-28T16:45:31.047Z,24.77
2022-07-28T16:47:58.741Z,24.85
2022-07-28T16:50:25.389Z,24.90
2022-07-28T16:52:52.389Z,24.88
2022-07-28T16:55:23.396Z,24.67
2022-07-28T16:57:51.222Z,24.47
2022-07-28T17:00:18.377Z,24.47
2022-07-28T17:02:45.270Z,24.17
2022-07-28T17:05:12.500Z,24.10
2022-07-28T17:07:45.247Z,24.22
2022-07-28T17:10:13.659Z,24.15
2022-07-28T17:12:40.132Z,24.17
2022-07-28T17:15:07.044Z,24.02
2022-07-28T17:17:47.040Z,23.74
2022-07-28T17:20:13.597Z,23.75
2022-07-28T17:22:40.220Z,23.75
2022-07-28T17:25:22.668Z,23.55
2022-07-28T17:27:53.662Z,23.40
2022-07-28T17:30:21.232Z,23.38
2022-07-28T17:32:47.697Z,23.23
2022-07-28T17:35:31.512Z,23.36
2022-07-28T17:38:00.774Z,23.46
2022-07-28T17:40:27.219Z,23.46
2022-07-28T17:42:54.082Z,23.37
2022-07-28T17:45:20.536Z,23.24
2022-07-28T17:47:47.007Z,23.40
2022-07-28T17:50:13.546Z,23.40
2022-07-28T17:52:40.943Z,23.26
2022-07-28T17:55:26.447Z,23.12
2022-07-28T17:57:55.983Z,23.15
2022-07-28T18:00:22.660Z,23.11
2022-07-28T18:02:49.905Z,23.21
2022-07-28T18:05:17.484Z,23.08
2022-07-28T18:07:50.428Z,23.17
2022-07-28T18:10:20.288Z,23.16
2022-07-28T18:12:51.473Z,23.02
2022-07-28T18:15:18.821Z,22.95
2022-07-28T18:17:54.817Z,22.89
2022-07-28T18:20:22.144Z,22.90
2022-07-28T18:22:48.547Z,22.94
2022-07-28T18:25:14.940Z,23.05
2022-07-28T18:27:42.506Z,22.91
2022-07-28T18:30:09.793Z,22.82
2022-07-28T18:32:36.254Z,22.75
2022-07-28T18:35:02.661Z,22.86
2022-07-28T18:37:30.977Z,22.62
2022-07-28T18:39:57.530Z,22.68
2022-07-28T18:42:23.982Z,22.62
2022-07-28T18:44:50.423Z,22.53
2022-07-28T18:47:16.826Z,22.54
2022-07-28T18:49:43.421Z,22.39
2022-07-28T18:52:09.896Z,22.37
2022-07-28T18:54:36.324Z,22.33
2022-07-28T18:57:02.732Z,22.26
2022-07-28T18:59:29.125Z,22.22
2022-07-28T19:01:55.688Z,22.14
2022-07-28T19:04:22.159Z,22.14
2022-07-28T19:06:49.179Z,22.17
2022-07-28T19:09:15.580Z,22.09
2022-07-28T19:11:46.007Z,22.13
2022-07-28T19:14:16.635Z,22.06
2022-07-28T19:16:43.739Z,21.90
2022-07-28T19:19:10.171Z,21.88
2022-07-28T19:21:36.599Z,21.90
2022-07-28T19:24:03.675Z,21.98
2022-07-28T19:26:30.091Z,21.90
2022-07-28T19:28:56.505Z,21.71
2022-07-28T19:31:23.052Z,21.71
2022-07-28T19:33:49.566Z,21.70
2022-07-28T19:36:15.999Z,21.60
2022-07-28T19:38:42.712Z,21.57
2022-07-28T19:41:09.319Z,21.72
2022-07-28T19:43:35.912Z,21.67
2022-07-28T19:46:02.820Z,21.66
2022-07-28T19:48:29.325Z,21.51
2022-07-28T19:50:56.715Z,21.56
2022-07-28T19:53:25.337Z,21.48
2022-07-28T19:55:58.726Z,21.59
2022-07-28T19:58:25.170Z,21.51
2022-07-28T20:00:51.778Z,21.53
2022-07-28T20:04:01.576Z,21.36
2022-07-28T20:06:05.273Z,21.46
2022-07-28T20:08:31.706Z,21.38
2022-07-28T20:10:58.369Z,21.30
2022-07-28T20:13:24.804Z,21.38
2022-07-28T20:15:51.266Z,21.36
2022-07-28T20:18:19.255Z,21.27
2022-07-28T20:20:46.681Z,21.23
2022-07-28T20:23:14.702Z,21.11
2022-07-28T20:25:41.848Z,21.03
2022-07-28T20:28:08.825Z,21.13
2022-07-28T20:30:35.307Z,21.13
2022-07-28T20:33:02.512Z,21.01
2022-07-28T20:35:29.048Z,20.90
2022-07-28T20:37:55.786Z,20.92
2022-07-28T20:40:22.226Z,21.01
2022-07-28T20:42:52.803Z,21.13
2022-07-28T20:45:19.763Z,20.91
2022-07-28T20:47:46.189Z,20.95
2022-07-28T20:50:14.509Z,20.91
2022-07-28T20:52:41.071Z,20.69
2022-07-28T20:55:08.786Z,20.72
2022-07-28T20:57:35.260Z,20.74
2022-07-28T21:00:03.139Z,20.69
2022-07-28T21:02:29.637Z,20.52
2022-07-28T21:04:56.120Z,20.55
2022-07-28T21:07:59.849Z,20.54
2022-07-28T21:10:10.059Z,20.56
2022-07-28T21:12:37.225Z,20.51
2022-07-28T21:15:05.073Z,20.43
2022-07-28T21:17:31.484Z,20.34
2022-07-28T21:19:57.891Z,20.36
2022-07-28T21:22:24.585Z,20.36
2022-07-28T21:24:55.321Z,20.46
2022-07-28T21:27:22.699Z,20.54
2022-07-28T21:29:49.552Z,20.54
2022-07-28T21:32:16.030Z,20.57
2022-07-28T21:34:42.460Z,20.58
2022-07-28T21:37:11.399Z,20.59
2022-07-28T21:39:38.974Z,20.65
2022-07-28T21:42:08.536Z,20.51
2022-07-28T21:44:35.768Z,20.51
2022-07-28T21:47:02.188Z,20.47
2022-07-28T21:49:30.459Z,20.48
2022-07-28T21:51:56.898Z,20.21
2022-07-28T21:54:23.593Z,20.20
2022-07-28T21:56:50.107Z,20.02
2022-07-28T21:59:16.531Z,19.99
2022-07-28T22:01:43.070Z,20.20
2022-07-28T22:04:09.545Z,20.15
2022-07-28T22:06:35.987Z,20.16
2022-07-28T22:09:02.499Z,20.02
2022-07-28T22:11:29.181Z,20.08
2022-07-28T22:13:55.720Z,20.11
2022-07-28T22:16:22.193Z,19.97
2022-07-28T22:18:48.647Z,19.89
2022-07-28T22:21:15.060Z,20.08
2022-07-28T22:23:41.820Z,19.98
2022-07-28T22:26:08.227Z,19.90
2022-07-28T22:28:34.641Z,19.87
2022-07-28T22:31:09.332Z,19.86
2022-07-28T22:33:39.757Z,19.78
2022-07-28T22:36:07.715Z,19.88
2022-07-28T22:38:34.131Z,19.72
2022-07-28T22:41:00.555Z,19.58
2022-07-28T22:43:26.961Z,19.47
2022-07-28T22:45:53.487Z,19.55
2022-07-28T22:48:19.949Z,19.50
2022-07-28T22:50:46.353Z,19.60
2022-07-28T22:53:12.762Z,19.50
2022-07-28T22:55:39.892Z,19.51
2022-07-28T22:58:06.542Z,19.55
2022-07-28T23:00:36.176Z,19.55
2022-07-28T23:03:03.526Z,19.37
2022-07-28T23:05:30.445Z,19.27
2022-07-28T23:07:57.334Z,19.14
2022-07-28T23:10:24.157Z,19.10
2022-07-28T23:12:50.561Z,19.14
2022-07-28T23:15:17.140Z,19.12
2022-07-28T23:17:43.616Z,19.08
2022-07-28T23:20:10.551Z,19.21
2022-07-28T23:22:37.885Z,19.22
2022-07-28T23:25:04.785Z,19.13
2022-07-28T23:27:31.197Z,19.16
2022-07-28T23:29:57.610Z,19.14
2022-07-28T23:32:24.019Z,19.00
2022-07-28T23:34:50.439Z,18.86
2022-07-28T23:37:16.884Z,19.03
2022-07-28T23:39:43.382Z,18.86
2022-07-28T23:42:09.823Z,19.06
2022-07-28T23:44:37.815Z,19.02
2022-07-28T23:47:04.399Z,18.96
2022-07-28T23:49:30.881Z,18.91
2022-07-28T23:51:57.280Z,18.85
2022-07-28T23:54:23.705Z,18.77
2022-07-28T23:56:56.460Z,18.75
2022-07-28T23:59:23.823Z,18.69
